sensor_id;sensor_type;location;lat;lon;timestamp;P1;durP1;ratioP1;P2;durP2;ratioP2
16665;SDS011;8446;50.998;6.250;2022-07-25T00:01:27;7.60;;;6.80;;
16665;SDS011;8446;50.998;6.250;2022-07-25T00:03:53;10.13;;;7.70;;
16665;SDS011;8446;50.998;6.250;2022-07-25T00:06:20;8.80;;;7.33;;
16665;SDS011;8446;50.998;6.250;2022-07-25T00:08:48;8.53;;;7.10;;
16665;SDS011;8446;50.998;6.250;2022-07-25T00:11:16;9.47;;;7.70;;
16665;SDS011;8446;50.998;6.250;2022-07-25T00:13:43;11.53;;;6.63;;
16665;SDS011;8446;50.998;6.250;2022-07-25T00:16:09;8.90;;;7.13;;
16665;SDS011;8446;50.998;6.250;2022-07-25T00:18:37;9.90;;;7.17;;
16665;SDS011;8446;50.998;6.250;2022-07-25T00:21:04;16.00;;;7.40;;
16665;SDS011;8446;50.998;6.250;2022-07-25T00:23:31;11.40;;;7.20;;
16665;SDS011;8446;50.998;6.250;2022-07-25T00:25:59;10.07;;;7.50;;
16665;SDS011;8446;50.998;6.250;2022-07-25T00:28:26;9.37;;;6.80;;
16665;SDS011;8446;50.998;6.250;2022-07-25T00:30:53;8.63;;;6.80;;
16665;SDS011;8446;50.998;6.250;2022-07-25T00:33:20;9.63;;;6.70;;
16665;SDS011;8446;50.998;6.250;2022-07-25T00:35:46;9.70;;;6.70;;
16665;SDS011;8446;50.998;6.250;2022-07-25T00:38:13;8.67;;;6.53;;
16665;SDS011;8446;50.998;6.250;2022-07-25T00:40:40;10.53;;;7.37;;
16665;SDS011;8446;50.998;6.250;2022-07-25T00:43:08;8.33;;;6.93;;
16665;SDS011;8446;50.998;6.250;2022-07-25T00:45:35;18.07;;;7.17;;
16665;SDS011;8446;50.998;6.250;2022-07-25T00:48:02;18.23;;;7.97;;
16665;SDS011;8446;50.998;6.250;2022-07-25T00:50:29;15.07;;;7.87;;
16665;SDS011;8446;50.998;6.250;2022-07-25T00:52:56;13.70;;;8.07;;
16665;SDS011;8446;50.998;6.250;2022-07-25T00:55:23;10.10;;;7.13;;
16665;SDS011;8446;50.998;6.250;2022-07-25T00:57:51;11.47;;;7.80;;
16665;SDS011;8446;50.998;6.250;2022-07-25T01:00:19;13.60;;;7.90;;
16665;SDS011;8446;50.998;6.250;2022-07-25T01:02:46;9.90;;;7.30;;
16665;SDS011;8446;50.998;6.250;2022-07-25T01:05:13;19.57;;;7.90;;
16665;SDS011;8446;50.998;6.250;2022-07-25T01:07:41;13.50;;;7.40;;
16665;SDS011;8446;50.998;6.250;2022-07-25T01:10:08;13.70;;;7.63;;
16665;SDS011;8446;50.998;6.250;2022-07-25T01:12:43;8.80;;;7.30;;
16665;SDS011;8446;50.998;6.250;2022-07-25T01:15:14;11.97;;;7.27;;
16665;SDS011;8446;50.998;6.250;2022-07-25T01:17:43;15.03;;;7.77;;
16665;SDS011;8446;50.998;6.250;2022-07-25T01:20:13;10.20;;;7.57;;
16665;SDS011;8446;50.998;6.250;2022-07-25T01:22:40;15.30;;;7.03;;
16665;SDS011;8446;50.998;6.250;2022-07-25T01:25:07;10.43;;;7.13;;
16665;SDS011;8446;50.998;6.250;2022-07-25T01:27:34;15.53;;;6.70;;
16665;SDS011;8446;50.998;6.250;2022-07-25T01:30:01;8.77;;;6.70;;
16665;SDS011;8446;50.998;6.250;2022-07-25T01:32:28;10.80;;;6.93;;
16665;SDS011;8446;50.998;6.250;2022-07-25T01:34:55;12.43;;;7.50;;
16665;SDS011;8446;50.998;6.250;2022-07-25T01:37:23;12.10;;;7.27;;
16665;SDS011;8446;50.998;6.250;2022-07-25T01:39:50;14.13;;;7.40;;
16665;SDS011;8446;50.998;6.250;2022-07-25T01:42:17;11.47;;;7.40;;
16665;SDS011;8446;50.998;6.250;2022-07-25T01:44:44;10.17;;;6.90;;
16665;SDS011;8446;50.998;6.250;2022-07-25T01:47:11;8.27;;;6.10;;
16665;SDS011;8446;50.998;6.250;2022-07-25T01:49:37;11.03;;;6.93;;
16665;SDS011;8446;50.998;6.250;2022-07-25T01:52:05;7.73;;;6.63;;
16665;SDS011;8446;50.998;6.250;2022-07-25T01:54:33;11.00;;;6.23;;
16665;SDS011;8446;50.998;6.250;2022-07-25T01:57:00;10.00;;;6.93;;
16665;SDS011;8446;50.998;6.250;2022-07-25T01:59:26;10.00;;;6.83;;
16665;SDS011;8446;50.998;6.250;2022-07-25T02:01:53;10.73;;;6.07;;
16665;SDS011;8446;50.998;6.250;2022-07-25T02:04:20;14.27;;;6.70;;
16665;SDS011;8446;50.998;6.250;2022-07-25T02:06:47;8.97;;;7.20;;
16665;SDS011;8446;50.998;6.250;2022-07-25T02:09:14;8.70;;;6.40;;
16665;SDS011;8446;50.998;6.250;2022-07-25T02:11:42;9.30;;;7.20;;
16665;SDS011;8446;50.998;6.250;2022-07-25T02:14:09;12.47;;;6.70;;
16665;SDS011;8446;50.998;6.250;2022-07-25T02:16:36;9.57;;;6.40;;
16665;SDS011;8446;50.998;6.250;2022-07-25T02:19:03;9.80;;;6.80;;
16665;SDS011;8446;50.998;6.250;2022-07-25T02:21:30;9.70;;;6.43;;
16665;SDS011;8446;50.998;6.250;2022-07-25T02:23:56;13.10;;;7.40;;
16665;SDS011;8446;50.998;6.250;2022-07-25T02:26:23;9.07;;;6.37;;
16665;SDS011;8446;50.998;6.250;2022-07-25T02:28:51;12.00;;;7.30;;
16665;SDS011;8446;50.998;6.250;2022-07-25T02:31:18;10.77;;;6.70;;
16665;SDS011;8446;50.998;6.250;2022-07-25T02:33:45;10.97;;;7.47;;
16665;SDS011;8446;50.998;6.250;2022-07-25T02:36:12;11.97;;;7.10;;
16665;SDS011;8446;50.998;6.250;2022-07-25T02:38:39;12.73;;;6.60;;
16665;SDS011;8446;50.998;6.250;2022-07-25T02:41:06;15.53;;;7.00;;
16665;SDS011;8446;50.998;6.250;2022-07-25T02:43:33;9.40;;;6.60;;
16665;SDS011;8446;50.998;6.250;2022-07-25T02:46:01;10.37;;;7.00;;
16665;SDS011;8446;50.998;6.250;2022-07-25T02:48:28;15.13;;;7.00;;
16665;SDS011;8446;50.998;6.250;2022-07-25T02:50:55;9.10;;;6.20;;
16665;SDS011;8446;50.998;6.250;2022-07-25T02:53:21;9.33;;;6.97;;
16665;SDS011;8446;50.998;6.250;2022-07-25T02:55:48;9.10;;;6.53;;
16665;SDS011;8446;50.998;6.250;2022-07-25T02:58:15;12.50;;;7.40;;
16665;SDS011;8446;50.998;6.250;2022-07-25T03:00:42;10.13;;;6.53;;
16665;SDS011;8446;50.998;6.250;2022-07-25T03:03:10;13.47;;;7.50;;
16665;SDS011;8446;50.998;6.250;2022-07-25T03:05:37;11.83;;;7.30;;
16665;SDS011;8446;50.998;6.250;2022-07-25T03:08:04;11.97;;;8.20;;
16665;SDS011;8446;50.998;6.250;2022-07-25T03:10:31;8.63;;;7.00;;
16665;SDS011;8446;50.998;6.250;2022-07-25T03:12:58;10.10;;;7.70;;
16665;SDS011;8446;50.998;6.250;2022-07-25T03:15:25;14.93;;;8.10;;
16665;SDS011;8446;50.998;6.250;2022-07-25T03:17:51;10.80;;;7.67;;
16665;SDS011;8446;50.998;6.250;2022-07-25T03:20:20;17.90;;;7.40;;
16665;SDS011;8446;50.998;6.250;2022-07-25T03:22:46;10.03;;;6.63;;
16665;SDS011;8446;50.998;6.250;2022-07-25T03:25:13;15.93;;;8.07;;
16665;SDS011;8446;50.998;6.250;2022-07-25T03:27:40;12.80;;;7.93;;
16665;SDS011;8446;50.998;6.250;2022-07-25T03:30:07;13.30;;;8.33;;
16665;SDS011;8446;50.998;6.250;2022-07-25T03:32:36;12.17;;;7.60;;
16665;SDS011;8446;50.998;6.250;2022-07-25T03:35:03;12.77;;;7.90;;
16665;SDS011;8446;50.998;6.250;2022-07-25T03:37:31;10.50;;;6.97;;
16665;SDS011;8446;50.998;6.250;2022-07-25T03:39:58;17.30;;;7.90;;
16665;SDS011;8446;50.998;6.250;2022-07-25T03:42:25;11.23;;;7.77;;
16665;SDS011;8446;50.998;6.250;2022-07-25T03:44:52;14.40;;;7.67;;
16665;SDS011;8446;50.998;6.250;2022-07-25T03:47:19;14.30;;;9.63;;
16665;SDS011;8446;50.998;6.250;2022-07-25T03:49:45;9.70;;;7.50;;
16665;SDS011;8446;50.998;6.250;2022-07-25T03:52:12;16.23;;;7.87;;
16665;SDS011;8446;50.998;6.250;2022-07-25T03:54:40;20.90;;;7.97;;
16665;SDS011;8446;50.998;6.250;2022-07-25T03:57:07;11.60;;;7.60;;
16665;SDS011;8446;50.998;6.250;2022-07-25T03:59:35;12.60;;;7.80;;
16665;SDS011;8446;50.998;6.250;2022-07-25T04:02:02;9.50;;;7.40;;
16665;SDS011;8446;50.998;6.250;2022-07-25T04:04:29;10.40;;;7.70;;
16665;SDS011;8446;50.998;6.250;2022-07-25T04:06:56;10.53;;;7.30;;
16665;SDS011;8446;50.998;6.250;2022-07-25T04:09:23;10.87;;;7.50;;
16665;SDS011;8446;50.998;6.250;2022-07-25T04:11:51;11.67;;;7.73;;
16665;SDS011;8446;50.998;6.250;2022-07-25T04:14:18;19.90;;;8.50;;
16665;SDS011;8446;50.998;6.250;2022-07-25T04:16:44;16.20;;;7.70;;
16665;SDS011;8446;50.998;6.250;2022-07-25T04:19:11;15.03;;;7.60;;
16665;SDS011;8446;50.998;6.250;2022-07-25T04:21:38;12.03;;;7.90;;
16665;SDS011;8446;50.998;6.250;2022-07-25T04:24:05;12.63;;;7.87;;
16665;SDS011;8446;50.998;6.250;2022-07-25T04:26:32;12.50;;;8.03;;
16665;SDS011;8446;50.998;6.250;2022-07-25T04:29:00;11.53;;;8.00;;
16665;SDS011;8446;50.998;6.250;2022-07-25T04:31:28;18.40;;;7.50;;
16665;SDS011;8446;50.998;6.250;2022-07-25T04:33:55;11.70;;;7.17;;
16665;SDS011;8446;50.998;6.250;2022-07-25T04:36:21;11.63;;;6.90;;
16665;SDS011;8446;50.998;6.250;2022-07-25T04:38:49;8.20;;;7.00;;
16665;SDS011;8446;50.998;6.250;2022-07-25T04:41:15;10.87;;;7.73;;
16665;SDS011;8446;50.998;6.250;2022-07-25T04:43:42;18.67;;;8.20;;
16665;SDS011;8446;50.998;6.250;2022-07-25T04:46:10;14.53;;;7.83;;
16665;SDS011;8446;50.998;6.250;2022-07-25T04:48:37;12.37;;;7.40;;
16665;SDS011;8446;50.998;6.250;2022-07-25T04:51:04;21.43;;;9.63;;
16665;SDS011;8446;50.998;6.250;2022-07-25T04:53:31;15.00;;;7.23;;
16665;SDS011;8446;50.998;6.250;2022-07-25T04:55:58;11.40;;;7.33;;
16665;SDS011;8446;50.998;6.250;2022-07-25T04:58:25;10.53;;;7.57;;
16665;SDS011;8446;50.998;6.250;2022-07-25T05:00:51;13.17;;;6.80;;
16665;SDS011;8446;50.998;6.250;2022-07-25T05:03:20;10.80;;;7.17;;
16665;SDS011;8446;50.998;6.250;2022-07-25T05:05:46;12.07;;;6.80;;
16665;SDS011;8446;50.998;6.250;2022-07-25T05:08:13;13.67;;;7.63;;
16665;SDS011;8446;50.998;6.250;2022-07-25T05:10:40;11.70;;;6.90;;
16665;SDS011;8446;50.998;6.250;2022-07-25T05:13:08;8.90;;;6.60;;
16665;SDS011;8446;50.998;6.250;2022-07-25T05:15:34;8.97;;;6.70;;
16665;SDS011;8446;50.998;6.250;2022-07-25T05:18:01;7.50;;;5.60;;
16665;SDS011;8446;50.998;6.250;2022-07-25T05:20:29;10.03;;;6.63;;
16665;SDS011;8446;50.998;6.250;2022-07-25T05:22:56;13.43;;;6.63;;
16665;SDS011;8446;50.998;6.250;2022-07-25T05:25:23;10.73;;;7.30;;
16665;SDS011;8446;50.998;6.250;2022-07-25T05:27:50;8.83;;;7.10;;
16665;SDS011;8446;50.998;6.250;2022-07-25T05:30:18;9.67;;;7.30;;
16665;SDS011;8446;50.998;6.250;2022-07-25T05:32:45;11.63;;;6.90;;
16665;SDS011;8446;50.998;6.250;2022-07-25T05:35:12;13.70;;;6.77;;
16665;SDS011;8446;50.998;6.250;2022-07-25T05:37:41;10.00;;;7.33;;
16665;SDS011;8446;50.998;6.250;2022-07-25T05:40:08;14.80;;;7.77;;
16665;SDS011;8446;50.998;6.250;2022-07-25T05:42:34;9.77;;;6.90;;
16665;SDS011;8446;50.998;6.250;2022-07-25T05:45:01;14.83;;;7.73;;
16665;SDS011;8446;50.998;6.250;2022-07-25T05:47:28;8.87;;;6.93;;
16665;SDS011;8446;50.998;6.250;2022-07-25T05:49:55;11.37;;;7.50;;
16665;SDS011;8446;50.998;6.250;2022-07-25T05:52:22;10.30;;;7.20;;
16665;SDS011;8446;50.998;6.250;2022-07-25T05:54:50;16.37;;;6.77;;
16665;SDS011;8446;50.998;6.250;2022-07-25T05:57:17;12.77;;;7.70;;
16665;SDS011;8446;50.998;6.250;2022-07-25T05:59:44;7.37;;;6.03;;
16665;SDS011;8446;50.998;6.250;2022-07-25T06:02:10;8.07;;;6.27;;
16665;SDS011;8446;50.998;6.250;2022-07-25T06:04:38;10.00;;;6.73;;
16665;SDS011;8446;50.998;6.250;2022-07-25T06:07:04;9.10;;;5.83;;
16665;SDS011;8446;50.998;6.250;2022-07-25T06:09:31;13.40;;;6.23;;
16665;SDS011;8446;50.998;6.250;2022-07-25T06:11:59;9.10;;;5.83;;
16665;SDS011;8446;50.998;6.250;2022-07-25T06:14:26;10.40;;;6.30;;
16665;SDS011;8446;50.998;6.250;2022-07-25T06:16:53;9.30;;;5.97;;
16665;SDS011;8446;50.998;6.250;2022-07-25T06:19:20;10.70;;;5.40;;
16665;SDS011;8446;50.998;6.250;2022-07-25T06:21:47;9.13;;;6.10;;
16665;SDS011;8446;50.998;6.250;2022-07-25T06:24:13;12.57;;;5.63;;
16665;SDS011;8446;50.998;6.250;2022-07-25T06:26:40;11.03;;;6.43;;
16665;SDS011;8446;50.998;6.250;2022-07-25T06:29:09;13.20;;;6.13;;
16665;SDS011;8446;50.998;6.250;2022-07-25T06:31:36;7.80;;;5.13;;
16665;SDS011;8446;50.998;6.250;2022-07-25T06:34:03;14.20;;;6.00;;
16665;SDS011;8446;50.998;6.250;2022-07-25T06:36:29;8.87;;;5.97;;
16665;SDS011;8446;50.998;6.250;2022-07-25T06:38:56;9.40;;;5.80;;
16665;SDS011;8446;50.998;6.250;2022-07-25T06:41:23;7.87;;;5.67;;
16665;SDS011;8446;50.998;6.250;2022-07-25T06:43:50;10.97;;;5.73;;
16665;SDS011;8446;50.998;6.250;2022-07-25T06:46:18;11.37;;;6.07;;
16665;SDS011;8446;50.998;6.250;2022-07-25T06:48:44;8.50;;;5.43;;
16665;SDS011;8446;50.998;6.250;2022-07-25T06:51:11;11.90;;;6.03;;
16665;SDS011;8446;50.998;6.250;2022-07-25T06:53:38;9.23;;;6.13;;
16665;SDS011;8446;50.998;6.250;2022-07-25T06:56:05;7.37;;;5.60;;
16665;SDS011;8446;50.998;6.250;2022-07-25T06:58:32;10.07;;;5.90;;
16665;SDS011;8446;50.998;6.250;2022-07-25T07:00:59;9.23;;;5.90;;
16665;SDS011;8446;50.998;6.250;2022-07-25T07:03:27;11.80;;;6.03;;
16665;SDS011;8446;50.998;6.250;2022-07-25T07:05:54;9.23;;;5.70;;
16665;SDS011;8446;50.998;6.250;2022-07-25T07:08:21;8.13;;;4.90;;
16665;SDS011;8446;50.998;6.250;2022-07-25T07:10:47;7.47;;;4.97;;
16665;SDS011;8446;50.998;6.250;2022-07-25T07:13:14;8.10;;;5.30;;
16665;SDS011;8446;50.998;6.250;2022-07-25T07:15:43;10.87;;;4.47;;
16665;SDS011;8446;50.998;6.250;2022-07-25T07:18:13;5.73;;;4.50;;
16665;SDS011;8446;50.998;6.250;2022-07-25T07:20:41;6.67;;;4.90;;
16665;SDS011;8446;50.998;6.250;2022-07-25T07:23:08;9.23;;;5.43;;
16665;SDS011;8446;50.998;6.250;2022-07-25T07:25:35;6.37;;;4.73;;
16665;SDS011;8446;50.998;6.250;2022-07-25T07:28:02;5.80;;;4.43;;
16665;SDS011;8446;50.998;6.250;2022-07-25T07:30:28;7.53;;;4.83;;
16665;SDS011;8446;50.998;6.250;2022-07-25T07:32:55;8.80;;;5.17;;
16665;SDS011;8446;50.998;6.250;2022-07-25T07:35:22;12.83;;;5.30;;
16665;SDS011;8446;50.998;6.250;2022-07-25T07:37:50;8.13;;;4.60;;
16665;SDS011;8446;50.998;6.250;2022-07-25T07:40:18;7.73;;;4.40;;
16665;SDS011;8446;50.998;6.250;2022-07-25T07:42:46;13.53;;;5.27;;
16665;SDS011;8446;50.998;6.250;2022-07-25T07:45:14;5.27;;;4.40;;
16665;SDS011;8446;50.998;6.250;2022-07-25T07:47:41;10.50;;;4.70;;
16665;SDS011;8446;50.998;6.250;2022-07-25T07:50:10;5.90;;;4.30;;
16665;SDS011;8446;50.998;6.250;2022-07-25T07:52:37;9.63;;;5.53;;
16665;SDS011;8446;50.998;6.250;2022-07-25T07:55:06;6.47;;;4.50;;
16665;SDS011;8446;50.998;6.250;2022-07-25T07:57:51;8.17;;;4.40;;
16665;SDS011;8446;50.998;6.250;2022-07-25T08:00:18;8.53;;;5.20;;
16665;SDS011;8446;50.998;6.250;2022-07-25T08:02:46;8.13;;;4.87;;
16665;SDS011;8446;50.998;6.250;2022-07-25T08:05:18;7.47;;;5.60;;
16665;SDS011;8446;50.998;6.250;2022-07-25T08:07:46;8.10;;;4.40;;
16665;SDS011;8446;50.998;6.250;2022-07-25T08:10:16;4.90;;;3.83;;
16665;SDS011;8446;50.998;6.250;2022-07-25T08:12:44;5.07;;;4.57;;
16665;SDS011;8446;50.998;6.250;2022-07-25T08:15:11;6.70;;;5.10;;
16665;SDS011;8446;50.998;6.250;2022-07-25T08:17:38;11.77;;;4.97;;
16665;SDS011;8446;50.998;6.250;2022-07-25T08:20:05;8.03;;;4.60;;
16665;SDS011;8446;50.998;6.250;2022-07-25T08:22:36;6.03;;;4.83;;
16665;SDS011;8446;50.998;6.250;2022-07-25T08:25:04;6.40;;;4.60;;
16665;SDS011;8446;50.998;6.250;2022-07-25T08:27:33;7.47;;;5.53;;
16665;SDS011;8446;50.998;6.250;2022-07-25T08:30:00;9.43;;;4.77;;
16665;SDS011;8446;50.998;6.250;2022-07-25T08:32:27;9.00;;;4.20;;
16665;SDS011;8446;50.998;6.250;2022-07-25T08:34:54;9.67;;;5.03;;
16665;SDS011;8446;50.998;6.250;2022-07-25T08:37:20;6.63;;;4.80;;
16665;SDS011;8446;50.998;6.250;2022-07-25T08:39:48;7.70;;;4.90;;
16665;SDS011;8446;50.998;6.250;2022-07-25T08:42:16;7.70;;;4.10;;
16665;SDS011;8446;50.998;6.250;2022-07-25T08:44:48;7.97;;;4.60;;
16665;SDS011;8446;50.998;6.250;2022-07-25T08:47:20;8.50;;;4.73;;
16665;SDS011;8446;50.998;6.250;2022-07-25T08:49:47;5.30;;;4.13;;
16665;SDS011;8446;50.998;6.250;2022-07-25T08:52:14;9.30;;;5.07;;
16665;SDS011;8446;50.998;6.250;2022-07-25T08:54:42;6.93;;;3.33;;
16665;SDS011;8446;50.998;6.250;2022-07-25T08:57:11;17.93;;;4.03;;
16665;SDS011;8446;50.998;6.250;2022-07-25T08:59:38;3.63;;;3.33;;
16665;SDS011;8446;50.998;6.250;2022-07-25T09:02:06;5.57;;;3.77;;
16665;SDS011;8446;50.998;6.250;2022-07-25T09:04:34;8.67;;;3.10;;
16665;SDS011;8446;50.998;6.250;2022-07-25T09:07:02;4.83;;;3.57;;
16665;SDS011;8446;50.998;6.250;2022-07-25T09:09:29;3.90;;;3.03;;
16665;SDS011;8446;50.998;6.250;2022-07-25T09:11:57;7.77;;;3.77;;
16665;SDS011;8446;50.998;6.250;2022-07-25T09:14:24;3.97;;;3.53;;
16665;SDS011;8446;50.998;6.250;2022-07-25T09:16:53;4.83;;;3.07;;
16665;SDS011;8446;50.998;6.250;2022-07-25T09:19:22;3.30;;;2.83;;
16665;SDS011;8446;50.998;6.250;2022-07-25T09:21:57;4.97;;;3.10;;
16665;SDS011;8446;50.998;6.250;2022-07-25T09:24:26;3.20;;;2.90;;
16665;SDS011;8446;50.998;6.250;2022-07-25T09:26:54;5.10;;;3.30;;
16665;SDS011;8446;50.998;6.250;2022-07-25T09:29:24;7.67;;;2.70;;
16665;SDS011;8446;50.998;6.250;2022-07-25T09:31:53;2.73;;;2.40;;
16665;SDS011;8446;50.998;6.250;2022-07-25T09:34:29;4.80;;;3.00;;
16665;SDS011;8446;50.998;6.250;2022-07-25T09:37:02;2.33;;;2.10;;
16665;SDS011;8446;50.998;6.250;2022-07-25T09:39:33;2.70;;;2.50;;
16665;SDS011;8446;50.998;6.250;2022-07-25T09:42:01;4.13;;;2.30;;
16665;SDS011;8446;50.998;6.250;2022-07-25T09:44:28;17.53;;;3.07;;
16665;SDS011;8446;50.998;6.250;2022-07-25T09:46:55;5.10;;;2.53;;
16665;SDS011;8446;50.998;6.250;2022-07-25T09:49:22;6.70;;;2.50;;
16665;SDS011;8446;50.998;6.250;2022-07-25T09:51:52;2.50;;;2.30;;
16665;SDS011;8446;50.998;6.250;2022-07-25T09:54:20;3.97;;;2.60;;
16665;SDS011;8446;50.998;6.250;2022-07-25T09:56:48;5.57;;;2.20;;
16665;SDS011;8446;50.998;6.250;2022-07-25T09:59:14;3.07;;;2.77;;
16665;SDS011;8446;50.998;6.250;2022-07-25T10:01:41;4.03;;;2.33;;
16665;SDS011;8446;50.998;6.250;2022-07-25T10:04:14;2.90;;;2.60;;
16665;SDS011;8446;50.998;6.250;2022-07-25T10:06:48;3.93;;;2.40;;
16665;SDS011;8446;50.998;6.250;2022-07-25T10:09:22;4.40;;;2.50;;
16665;SDS011;8446;50.998;6.250;2022-07-25T10:12:02;7.50;;;2.63;;
16665;SDS011;8446;50.998;6.250;2022-07-25T10:14:30;4.33;;;2.53;;
16665;SDS011;8446;50.998;6.250;2022-07-25T10:16:57;6.30;;;2.47;;
16665;SDS011;8446;50.998;6.250;2022-07-25T10:22:11;3.03;;;2.73;;
16665;SDS011;8446;50.998;6.250;2022-07-25T10:24:42;6.43;;;2.33;;
16665;SDS011;8446;50.998;6.250;2022-07-25T10:27:10;4.40;;;2.37;;
16665;SDS011;8446;50.998;6.250;2022-07-25T10:29:39;3.60;;;3.00;;
16665;SDS011;8446;50.998;6.250;2022-07-25T10:32:07;6.80;;;2.70;;
16665;SDS011;8446;50.998;6.250;2022-07-25T10:34:35;2.70;;;2.47;;
16665;SDS011;8446;50.998;6.250;2022-07-25T10:37:12;6.27;;;3.10;;
16665;SDS011;8446;50.998;6.250;2022-07-25T10:39:42;4.67;;;2.77;;
16665;SDS011;8446;50.998;6.250;2022-07-25T10:42:11;4.87;;;2.73;;
16665;SDS011;8446;50.998;6.250;2022-07-25T10:44:40;4.60;;;2.50;;
16665;SDS011;8446;50.998;6.250;2022-07-25T10:47:08;4.93;;;2.70;;
16665;SDS011;8446;50.998;6.250;2022-07-25T10:49:36;3.43;;;2.87;;
16665;SDS011;8446;50.998;6.250;2022-07-25T10:52:05;3.23;;;2.90;;
16665;SDS011;8446;50.998;6.250;2022-07-25T10:54:35;3.47;;;3.17;;
16665;SDS011;8446;50.998;6.250;2022-07-25T10:57:03;5.13;;;3.00;;
16665;SDS011;8446;50.998;6.250;2022-07-25T10:59:32;6.00;;;2.80;;
16665;SDS011;8446;50.998;6.250;2022-07-25T11:02:01;5.00;;;2.63;;
16665;SDS011;8446;50.998;6.250;2022-07-25T11:04:28;4.47;;;2.80;;
16665;SDS011;8446;50.998;6.250;2022-07-25T11:06:56;5.10;;;2.63;;
16665;SDS011;8446;50.998;6.250;2022-07-25T11:09:23;6.90;;;2.90;;
16665;SDS011;8446;50.998;6.250;2022-07-25T11:11:53;5.47;;;2.57;;
16665;SDS011;8446;50.998;6.250;2022-07-25T11:14:22;3.83;;;2.40;;
16665;SDS011;8446;50.998;6.250;2022-07-25T11:16:51;2.90;;;2.27;;
16665;SDS011;8446;50.998;6.250;2022-07-25T11:19:20;2.10;;;2.00;;
16665;SDS011;8446;50.998;6.250;2022-07-25T11:21:48;3.43;;;2.40;;
16665;SDS011;8446;50.998;6.250;2022-07-25T11:24:16;3.50;;;1.90;;
16665;SDS011;8446;50.998;6.250;2022-07-25T11:26:44;4.33;;;2.33;;
16665;SDS011;8446;50.998;6.250;2022-07-25T11:29:21;6.03;;;2.80;;
16665;SDS011;8446;50.998;6.250;2022-07-25T11:31:54;6.80;;;2.80;;
16665;SDS011;8446;50.998;6.250;2022-07-25T11:34:23;2.30;;;1.90;;
16665;SDS011;8446;50.998;6.250;2022-07-25T11:36:52;3.00;;;2.10;;
16665;SDS011;8446;50.998;6.250;2022-07-25T11:39:21;3.80;;;2.60;;
16665;SDS011;8446;50.998;6.250;2022-07-25T11:41:57;6.70;;;2.40;;
16665;SDS011;8446;50.998;6.250;2022-07-25T11:44:32;8.90;;;2.30;;
16665;SDS011;8446;50.998;6.250;2022-07-25T11:47:01;8.10;;;2.20;;
16665;SDS011;8446;50.998;6.250;2022-07-25T11:49:29;6.80;;;2.57;;
16665;SDS011;8446;50.998;6.250;2022-07-25T11:51:56;3.80;;;2.00;;
16665;SDS011;8446;50.998;6.250;2022-07-25T11:54:23;4.80;;;2.20;;
16665;SDS011;8446;50.998;6.250;2022-07-25T11:56:50;5.43;;;2.10;;
16665;SDS011;8446;50.998;6.250;2022-07-25T11:59:16;5.13;;;2.50;;
16665;SDS011;8446;50.998;6.250;2022-07-25T12:01:45;2.70;;;2.10;;
16665;SDS011;8446;50.998;6.250;2022-07-25T12:04:12;3.37;;;2.70;;
16665;SDS011;8446;50.998;6.250;2022-07-25T12:06:41;3.50;;;2.10;;
16665;SDS011;8446;50.998;6.250;2022-07-25T12:09:09;6.90;;;2.20;;
16665;SDS011;8446;50.998;6.250;2022-07-25T12:11:37;3.37;;;2.03;;
16665;SDS011;8446;50.998;6.250;2022-07-25T12:14:04;8.07;;;1.80;;
16665;SDS011;8446;50.998;6.250;2022-07-25T12:16:31;11.03;;;2.20;;
16665;SDS011;8446;50.998;6.250;2022-07-25T12:19:00;4.93;;;1.70;;
16665;SDS011;8446;50.998;6.250;2022-07-25T12:21:27;3.20;;;1.57;;
16665;SDS011;8446;50.998;6.250;2022-07-25T12:23:54;8.40;;;2.20;;
16665;SDS011;8446;50.998;6.250;2022-07-25T12:26:20;4.13;;;1.77;;
16665;SDS011;8446;50.998;6.250;2022-07-25T12:28:47;7.60;;;1.73;;
16665;SDS011;8446;50.998;6.250;2022-07-25T12:31:14;3.80;;;1.50;;
16665;SDS011;8446;50.998;6.250;2022-07-25T12:33:41;5.87;;;1.83;;
16665;SDS011;8446;50.998;6.250;2022-07-25T12:36:11;3.03;;;1.73;;
16665;SDS011;8446;50.998;6.250;2022-07-25T12:38:38;3.17;;;1.70;;
16665;SDS011;8446;50.998;6.250;2022-07-25T12:41:05;4.33;;;1.90;;
16665;SDS011;8446;50.998;6.250;2022-07-25T12:43:32;2.13;;;1.93;;
16665;SDS011;8446;50.998;6.250;2022-07-25T12:45:59;5.17;;;2.37;;
16665;SDS011;8446;50.998;6.250;2022-07-25T12:48:26;4.33;;;1.83;;
16665;SDS011;8446;50.998;6.250;2022-07-25T12:50:52;3.10;;;1.73;;
16665;SDS011;8446;50.998;6.250;2022-07-25T12:53:20;4.63;;;1.73;;
16665;SDS011;8446;50.998;6.250;2022-07-25T12:55:48;3.20;;;2.30;;
16665;SDS011;8446;50.998;6.250;2022-07-25T12:58:15;4.40;;;1.90;;
16665;SDS011;8446;50.998;6.250;2022-07-25T13:00:42;5.63;;;1.87;;
16665;SDS011;8446;50.998;6.250;2022-07-25T13:03:11;3.67;;;2.07;;
16665;SDS011;8446;50.998;6.250;2022-07-25T13:05:38;6.37;;;2.03;;
16665;SDS011;8446;50.998;6.250;2022-07-25T13:08:05;4.37;;;1.97;;
16665;SDS011;8446;50.998;6.250;2022-07-25T13:10:34;1.73;;;1.50;;
16665;SDS011;8446;50.998;6.250;2022-07-25T13:13:00;3.97;;;1.80;;
16665;SDS011;8446;50.998;6.250;2022-07-25T13:15:27;1.73;;;1.40;;
16665;SDS011;8446;50.998;6.250;2022-07-25T13:17:54;4.00;;;1.93;;
16665;SDS011;8446;50.998;6.250;2022-07-25T13:20:21;5.67;;;1.90;;
16665;SDS011;8446;50.998;6.250;2022-07-25T13:22:48;3.30;;;1.40;;
16665;SDS011;8446;50.998;6.250;2022-07-25T13:25:15;2.73;;;2.07;;
16665;SDS011;8446;50.998;6.250;2022-07-25T13:27:43;2.33;;;1.77;;
16665;SDS011;8446;50.998;6.250;2022-07-25T13:30:12;3.00;;;2.13;;
16665;SDS011;8446;50.998;6.250;2022-07-25T13:32:39;2.80;;;1.70;;
16665;SDS011;8446;50.998;6.250;2022-07-25T13:35:06;3.73;;;2.00;;
16665;SDS011;8446;50.998;6.250;2022-07-25T13:37:33;4.83;;;1.83;;
16665;SDS011;8446;50.998;6.250;2022-07-25T13:40:00;4.80;;;1.70;;
16665;SDS011;8446;50.998;6.250;2022-07-25T13:42:27;4.97;;;1.77;;
16665;SDS011;8446;50.998;6.250;2022-07-25T13:44:55;7.20;;;1.83;;
16665;SDS011;8446;50.998;6.250;2022-07-25T13:47:22;3.10;;;2.00;;
16665;SDS011;8446;50.998;6.250;2022-07-25T13:49:49;3.97;;;2.03;;
16665;SDS011;8446;50.998;6.250;2022-07-25T13:52:15;3.70;;;1.90;;
16665;SDS011;8446;50.998;6.250;2022-07-25T13:54:42;3.53;;;1.80;;
16665;SDS011;8446;50.998;6.250;2022-07-25T13:57:09;9.17;;;2.50;;
16665;SDS011;8446;50.998;6.250;2022-07-25T13:59:36;10.03;;;3.70;;
16665;SDS011;8446;50.998;6.250;2022-07-25T14:02:04;7.97;;;1.93;;
16665;SDS011;8446;50.998;6.250;2022-07-25T14:04:31;2.87;;;1.80;;
16665;SDS011;8446;50.998;6.250;2022-07-25T14:06:58;13.07;;;2.23;;
16665;SDS011;8446;50.998;6.250;2022-07-25T14:09:25;2.30;;;1.90;;
16665;SDS011;8446;50.998;6.250;2022-07-25T14:11:52;19.97;;;2.53;;
16665;SDS011;8446;50.998;6.250;2022-07-25T14:14:19;7.80;;;3.20;;
16665;SDS011;8446;50.998;6.250;2022-07-25T14:16:46;6.13;;;2.77;;
16665;SDS011;8446;50.998;6.250;2022-07-25T14:19:15;4.50;;;1.97;;
16665;SDS011;8446;50.998;6.250;2022-07-25T14:21:42;4.40;;;2.03;;
16665;SDS011;8446;50.998;6.250;2022-07-25T14:24:09;8.03;;;2.60;;
16665;SDS011;8446;50.998;6.250;2022-07-25T14:26:35;6.10;;;2.30;;
16665;SDS011;8446;50.998;6.250;2022-07-25T14:29:03;2.10;;;1.67;;
16665;SDS011;8446;50.998;6.250;2022-07-25T14:31:34;3.13;;;2.43;;
16665;SDS011;8446;50.998;6.250;2022-07-25T14:34:02;4.93;;;2.77;;
16665;SDS011;8446;50.998;6.250;2022-07-25T14:36:30;3.53;;;2.07;;
16665;SDS011;8446;50.998;6.250;2022-07-25T14:38:58;8.53;;;2.70;;
16665;SDS011;8446;50.998;6.250;2022-07-25T14:41:25;5.50;;;2.47;;
16665;SDS011;8446;50.998;6.250;2022-07-25T14:43:51;5.37;;;2.23;;
16665;SDS011;8446;50.998;6.250;2022-07-25T14:46:18;9.40;;;2.20;;
16665;SDS011;8446;50.998;6.250;2022-07-25T14:48:45;2.47;;;1.70;;
16665;SDS011;8446;50.998;6.250;2022-07-25T14:51:12;5.80;;;2.07;;
16665;SDS011;8446;50.998;6.250;2022-07-25T14:53:40;7.23;;;2.30;;
16665;SDS011;8446;50.998;6.250;2022-07-25T14:56:07;2.53;;;1.80;;
16665;SDS011;8446;50.998;6.250;2022-07-25T14:58:34;2.17;;;1.60;;
16665;SDS011;8446;50.998;6.250;2022-07-25T15:01:02;3.43;;;1.77;;